Flight Track Log - Related Links

Times and Time Zones

All times are in EDT time to prevent confusion due to time zone crossing. See the ASA2 flight status page for this flight to view local times or setup timezone preferences in your user account.

Time Position Orientation Groundspeed Altitude Reporting Facility
EDT Latitude Longitude Course Direction KTS MPH feet Rate Location/Type
Sat 05:07:36 PM 47.4278 -122.3078 181° South 178 205 1,300  Level Seattle Center
Sat 05:08:24 PM 47.3839 -122.3092 181° South 184 212 2,600 1,689 Climbing Seattle Center
Sat 05:09:19 PM 47.3289 -122.3033 176° South 244 281 4,200 2,092 Climbing Seattle Center
Sat 05:10:13 PM 47.3175 -122.2119 100° East 276 318 6,400 2,348 Climbing Seattle Center
Sat 05:11:14 PM 47.3447 -122.0953 71° East 283 326 8,700 2,213 Climbing Seattle Center
Sat 05:12:15 PM 47.3728 -121.9756 71° East 308 354 10,900 1,869 Climbing Seattle Center
Sat 05:13:16 PM 47.4039 -121.8400 71° East 352 405 12,500 1,967 Climbing Seattle Center
Sat 05:14:17 PM 47.4306 -121.6953 75° East 367 422 14,900 2,311 Climbing Seattle Center
Sat 05:15:18 PM 47.4272 -121.5433 92° East 371 427 17,200 2,115 Climbing Seattle Center
Sat 05:16:19 PM 47.4300 -121.4042 88° East 379 436 19,200 2,115 Climbing Seattle Center
Sat 05:17:20 PM 47.4364 -121.2142 87° East 390 449 21,500 1,967 Climbing Seattle Center
Sat 05:18:21 PM 47.4406 -121.0492 88° East 404 465 23,200 1,574 Climbing Seattle Center
Sat 05:19:22 PM 47.4447 -120.8811 88° East 411 473 24,700 1,475 Climbing Seattle Center
Sat 05:20:23 PM 47.4522 -120.7042 86° East 429 494 26,200 1,377 Climbing Seattle Center
Sat 05:21:24 PM 47.4606 -120.5256 86° East 437 503 27,500 1,230 Climbing Seattle Center
Sat 05:22:25 PM 47.4694 -120.3433 86° East 443 510 28,700 1,180 Climbing Seattle Center
Sat 05:23:26 PM 47.4803 -120.1594 85° East 449 517 29,900 1,082 Climbing Seattle Center
Sat 05:24:27 PM 47.4833 -119.9717 89° East 456 525 30,900 984 Climbing Seattle Center
Sat 05:25:28 PM 47.4914 -119.7803 86° East 467 537 31,900 1,082 Climbing Seattle Center
Sat 05:26:29 PM 47.4981 -119.5878 87° East 469 540 33,100 1,131 Climbing Seattle Center
Sat 05:27:30 PM 47.5042 -119.3986 87° East 465 535 34,200 934 Climbing Seattle Center
Sat 05:28:31 PM 47.5097 -119.1711 88° East 463 533 35,000 393 Climbing Seattle Center
Sat 05:29:32 PM 47.5172 -118.9825 87° East 459 528 35,000  Level Seattle Center
Sat 05:30:33 PM 47.5231 -118.7922 87° East 466 536 35,000  Level Seattle Center
Sat 05:31:33 PM 47.5278 -118.6053 88° East 459 528 35,000  Level Seattle Center
Sat 05:32:34 PM 47.5328 -118.4164 88° East 462 532 35,000  Level Seattle Center
Sat 05:33:35 PM 47.5372 -118.2300 88° East 456 525 35,000  Level Seattle Center
Sat 05:34:36 PM 47.5428 -118.0433 87° East 457 526 35,000  Level Seattle Center
Sat 05:35:37 PM 47.5469 -117.8578 88° East 452 520 35,000  Level Seattle Center
Sat 05:36:38 PM 47.5514 -117.6706 88° East 455 524 35,000  Level Seattle Center
Sat 05:37:39 PM 47.5550 -117.4828 88° East 458 527 35,000  Level Seattle Center
Sat 05:38:40 PM 47.5572 -117.2956 89° East 458 527 35,000  Level Seattle Center
Sat 05:39:41 PM 47.5581 -117.0817 90° East 459 528 35,000  Level Seattle Center
Sat 05:40:42 PM 47.5633 -116.8981 87° East 468 539 35,000  Level Seattle Center
Sat 05:41:43 PM 47.5644 -116.7111 89° East 461 531 35,000  Level Seattle Center
Sat 05:42:44 PM 47.5661 -116.5239 89° East 458 527 35,000  Level Seattle Center
Sat 05:43:45 PM 47.5675 -116.3353 89° East 460 529 35,000  Level Seattle Center
Sat 05:44:46 PM 47.5686 -116.1469 89° East 459 528 35,000  Level Seattle Center
Sat 05:45:47 PM 47.5692 -115.9597 90° East 458 527 35,000  Level Seattle Center
Sat 05:46:48 PM 47.5708 -115.7742 89° East 455 524 35,000  Level Seattle Center
Sat 05:47:49 PM 47.5708 -115.5817 90° East 456 525 35,000  Level Seattle Center
Sat 05:48:50 PM 47.5706 -115.3572 90° East 458 527 35,000  Level Seattle Center
Sat 05:49:51 PM 47.5706 -115.1683 90° East 461 531 35,000  Level Seattle Center
Sat 05:50:52 PM 47.5692 -114.9803 91° East 461 531 35,000  Level Seattle Center
Sat 05:51:53 PM 47.5689 -114.7928 90° East 461 531 35,000  Level Seattle Center
Sat 05:52:54 PM 47.5675 -114.6064 91° East 459 528 35,000  Level Seattle Center
Sat 05:53:54 PM 47.5656 -114.4175 91° East 461 531 35,000  Level Seattle Center
Sat 05:54:55 PM 47.5631 -114.2275 91° East 465 535 35,000  Level Seattle Center
Sat 05:55:56 PM 47.5611 -114.0383 91° East 465 535 35,000  Level Seattle Center
Sat 05:56:57 PM 47.5589 -113.8494 91° East 464 534 35,000  Level Seattle Center
Sat 05:57:58 PM 47.5553 -113.6208 91° East 467 537 35,000  Level Seattle Center
Sat 05:59:25 PM 47.5503 -113.3517 91° East 471 542 35,000  Level Salt Lake Center
Sat 06:00:26 PM 47.5475 -113.1572 91° East 474 545 35,000  Level Salt Lake Center
Sat 06:01:28 PM 47.5436 -112.9631 92° East 475 547 35,000  Level Salt Lake Center
Sat 06:02:30 PM 47.5383 -112.7444 92° East 471 542 35,000  Level Salt Lake Center
Sat 06:03:31 PM 47.5331 -112.5511 92° East 471 542 35,000  Level Salt Lake Center
Sat 06:04:33 PM 47.5261 -112.3603 93° East 469 540 35,000  Level Salt Lake Center
Sat 06:05:34 PM 47.5225 -112.1678 92° East 469 540 35,000  Level Salt Lake Center
Sat 06:06:36 PM 47.5156 -111.9756 93° East 470 541 35,000  Level Salt Lake Center
Sat 06:07:37 PM 47.5103 -111.7850 92° East 467 537 35,000  Level Salt Lake Center
Sat 06:08:39 PM 47.5044 -111.5931 93° East 470 541 35,000  Level Salt Lake Center
Sat 06:09:40 PM 47.4953 -111.3667 93° East 470 541 35,000  Level Salt Lake Center
Sat 06:10:42 PM 47.4897 -111.1789 92° East 472 543 35,000  Level Salt Lake Center
Sat 06:11:43 PM 47.4819 -110.9900 93° East 470 541 35,000  Level Salt Lake Center
Sat 06:12:45 PM 47.4747 -110.8014 93° East 464 534 35,000  Level Salt Lake Center
Sat 06:13:46 PM 47.4672 -110.6111 93° East 467 537 35,000  Level Salt Lake Center
Sat 06:14:48 PM 47.4569 -110.3819 94° East 468 539 35,000  Level Salt Lake Center
Sat 06:15:49 PM 47.4464 -110.1894 95° East 470 541 35,000  Level Salt Lake Center
Sat 06:16:51 PM 47.4400 -109.9997 93° East 466 536 35,000  Level Salt Lake Center
Sat 06:17:52 PM 47.4289 -109.8086 95° East 469 540 35,000  Level Salt Lake Center
Sat 06:18:54 PM 47.4206 -109.6167 94° East 471 542 35,000  Level Salt Lake Center
Sat 06:19:55 PM 47.4103 -109.4264 94° East 468 539 35,000  Level Salt Lake Center
Sat 06:20:57 PM 47.4011 -109.2369 94° East 467 537 35,000  Level Salt Lake Center
Sat 06:21:58 PM 47.3897 -109.0456 95° East 470 541 35,000  Level Salt Lake Center
Sat 06:23:00 PM 47.3803 -108.8528 94° East 473 544 35,000  Level Salt Lake Center
Sat 06:24:01 PM 47.3664 -108.6206 95° East 475 547 35,000  Level Salt Lake Center
Sat 06:25:02 PM 47.3542 -108.4275 95° East 475 547 35,000  Level Salt Lake Center
Sat 06:26:04 PM 47.3408 -108.2167 95° East 474 545 35,000  Level Salt Lake Center
Sat 06:27:05 PM 47.3292 -108.0222 95° East 476 548 35,000  Level Salt Lake Center
Sat 06:28:07 PM 47.3158 -107.8294 96° East 475 547 35,000  Level Salt Lake Center
Sat 06:29:08 PM 47.3028 -107.6369 96° East 473 544 35,000  Level Salt Lake Center
Sat 06:30:10 PM 47.2892 -107.4436 96° East 474 545 35,000  Level Salt Lake Center
Sat 06:31:11 PM 47.2747 -107.2497 96° East 476 548 35,000  Level Salt Lake Center
Sat 06:32:12 PM 47.2611 -107.0581 96° East 473 544 35,000  Level Salt Lake Center
Sat 06:33:14 PM 47.2467 -106.8667 96° East 472 543 35,000  Level Salt Lake Center
Sat 06:34:15 PM 47.2322 -106.6756 96° East 472 543 35,000  Level Salt Lake Center
Sat 06:35:17 PM 47.2133 -106.4472 97° East 470 541 35,000  Level Salt Lake Center
Sat 06:36:18 PM 47.1992 -106.2586 96° East 468 539 35,000  Level Salt Lake Center
Sat 06:37:20 PM 47.1844 -106.0961 98° East 470 541 35,000  Level Salt Lake Center
Sat 06:38:21 PM 47.1689 -105.9042 97° East 473 544 35,000  Level Salt Lake Center
Sat 06:39:22 PM 47.1492 -105.6756 97° East 473 544 35,000  Level Salt Lake Center
Sat 06:40:24 PM 47.1322 -105.4847 97° East 474 545 35,000  Level Salt Lake Center
Sat 06:41:25 PM 47.1150 -105.2933 97° East 474 545 35,000  Level Salt Lake Center
Sat 06:42:27 PM 47.0972 -105.1031 98° East 474 545 35,000  Level Salt Lake Center
Sat 06:43:28 PM 47.0783 -104.9108 98° East 477 549 35,000  Level Salt Lake Center
Sat 06:44:29 PM 47.0614 -104.7228 97° East 473 544 35,000  Level Salt Lake Center
Sat 06:45:31 PM 47.0431 -104.5347 98° East 470 541 35,000  Level Salt Lake Center
Sat 06:46:32 PM 47.0206 -104.3114 98° East 467 537 35,000  Level Salt Lake Center
Sat 06:47:33 PM 47.0036 -104.1297 98° East 462 532 35,000  Level Salt Lake Center
Sat 06:48:35 PM 46.9847 -103.9486 99° East 458 527 35,000 49 Level Salt Lake Center
Sat 06:49:36 PM 46.9669 -103.7661 98° East 457 526 35,100 443 Climbing Salt Lake Center
Sat 06:50:37 PM 46.9469 -103.5783 99° East 460 529 35,900 683 Climbing Salt Lake Center
Sat 06:51:39 PM 46.9269 -103.3914 99° East 465 535 36,500 537 Climbing Salt Lake Center
Sat 06:52:40 PM 46.9078 -103.2006 98° East 470 541 37,000 283 Climbing Salt Lake Center
Sat 06:53:25 PM 46.8933 -103.0514 98° East 475 547 37,000  Level Minneapolis Center
Sat 06:54:27 PM 46.8717 -102.8628 99° East 474 545 37,000  Level Minneapolis Center
Sat 06:55:29 PM 46.8372 -102.6811 105° East 472 543 37,000  Level Minneapolis Center
Sat 06:56:31 PM 46.7725 -102.4769 115° Southeast 467 537 37,000  Level Minneapolis Center
Sat 06:57:33 PM 46.7214 -102.3061 114° Southeast 463 533 37,000  Level Minneapolis Center
Sat 06:58:34 PM 46.6692 -102.1364 114° Southeast 462 532 37,000  Level Minneapolis Center
Sat 06:59:39 PM 46.6164 -101.9681 114° Southeast 460 529 37,000  Level Minneapolis Center
Sat 07:00:41 PM 46.5639 -101.7956 114° Southeast 465 535 37,000  Level Minneapolis Center
Sat 07:01:42 PM 46.5042 -101.6133 115° Southeast 462 532 37,000  Level Minneapolis Center
Sat 07:02:44 PM 46.4497 -101.4417 115° Southeast 465 535 37,000  Level Minneapolis Center
Sat 07:03:46 PM 46.3858 -101.2381 114° Southeast 463 533 37,000  Level Minneapolis Center
Sat 07:04:48 PM 46.3425 -101.1003 114° Southeast 466 536 37,000  Level Minneapolis Center
Sat 07:05:50 PM 46.2775 -100.8967 115° Southeast 466 536 37,000  Level Minneapolis Center
Sat 07:06:52 PM 46.2222 -100.7289 115° Southeast 464 534 37,000  Level Minneapolis Center
Sat 07:07:53 PM 46.1672 -100.5622 115° Southeast 462 532 37,000  Level Minneapolis Center
Sat 07:08:55 PM 46.1136 -100.3950 115° Southeast 459 528 37,000  Level Minneapolis Center
Sat 07:10:09 PM 46.0472 -100.1967 116° Southeast 458 527 37,000  Level Minneapolis Center
Sat 07:11:23 PM 45.9936 -100.0339 115° Southeast 451 519 37,000  Level Minneapolis Center
Sat 07:12:25 PM 45.9156 -99.8044 116° Southeast 454 522 37,000  Level Minneapolis Center
Sat 07:13:27 PM 45.8597 -99.6372 116° Southeast 459 528 37,000  Level Minneapolis Center
Sat 07:14:29 PM 45.8042 -99.4733 116° Southeast 458 527 37,000  Level Minneapolis Center
Sat 07:15:30 PM 45.7478 -99.3100 116° Southeast 456 525 37,000  Level Minneapolis Center
Sat 07:16:32 PM 45.6922 -99.1472 116° Southeast 455 524 37,000  Level Minneapolis Center
Sat 07:17:34 PM 45.6356 -98.9847 116° Southeast 455 524 37,000  Level Minneapolis Center
Sat 07:18:35 PM 45.5789 -98.8219 116° Southeast 456 525 37,000  Level Minneapolis Center
Sat 07:19:37 PM 45.5214 -98.6578 117° Southeast 458 527 37,000  Level Minneapolis Center
Sat 07:20:39 PM 45.4628 -98.4942 117° Southeast 461 531 37,000  Level Minneapolis Center
Sat 07:21:40 PM 45.3983 -98.2939 115° Southeast 463 533 37,000  Level Minneapolis Center
Sat 07:22:42 PM 45.3500 -98.1214 112° Southeast 468 539 37,000  Level Minneapolis Center
Sat 07:23:44 PM 45.3028 -97.9542 112° Southeast 467 537 37,000  Level Minneapolis Center
Sat 07:24:45 PM 45.2553 -97.7842 112° Southeast 465 535 37,000  Level Minneapolis Center
Sat 07:25:47 PM 45.2081 -97.6142 111° Southeast 464 534 37,000  Level Minneapolis Center
Sat 07:26:48 PM 45.1597 -97.4456 112° Southeast 462 532 37,000  Level Minneapolis Center
Sat 07:27:50 PM 45.1111 -97.2767 112° Southeast 463 533 37,000  Level Minneapolis Center
Sat 07:28:51 PM 45.0531 -97.0756 112° Southeast 462 532 37,000  Level Minneapolis Center
Sat 07:29:53 PM 45.0033 -96.9067 113° Southeast 464 534 37,000  Level Minneapolis Center
Sat 07:30:54 PM 44.9542 -96.7367 112° Southeast 467 537 37,000  Level Minneapolis Center
Sat 07:31:56 PM 44.9044 -96.5664 112° Southeast 468 539 37,000  Level Minneapolis Center
Sat 07:32:57 PM 44.8536 -96.3947 113° Southeast 473 544 37,000  Level Minneapolis Center
Sat 07:33:58 PM 44.8019 -96.2222 113° Southeast 476 548 37,000  Level Minneapolis Center
Sat 07:35:00 PM 44.7517 -96.0506 112° Southeast 472 543 37,000  Level Minneapolis Center
Sat 07:36:01 PM 44.6986 -95.8781 113° Southeast 474 545 37,000  Level Minneapolis Center
Sat 07:37:03 PM 44.6469 -95.7072 113° Southeast 474 545 37,000  Level Minneapolis Center
Sat 07:38:04 PM 44.5942 -95.5358 113° Southeast 476 548 37,000  Level Minneapolis Center
Sat 07:39:05 PM 44.5411 -95.3644 113° Southeast 478 550 37,000  Level Minneapolis Center
Sat 07:40:07 PM 44.4764 -95.1586 114° Southeast 479 551 37,000  Level Minneapolis Center
Sat 07:41:08 PM 44.4478 -94.9808 103° East 470 541 37,000  Level Minneapolis Center
Sat 07:42:09 PM 44.4253 -94.8014 100° East 468 539 37,000  Level Minneapolis Center
Sat 07:43:11 PM 44.3997 -94.6219 101° East 471 542 37,000  Level Minneapolis Center
Sat 07:44:12 PM 44.3694 -94.4267 102° East 474 545 37,000  Level Minneapolis Center
Sat 07:45:13 PM 44.3444 -94.2481 101° East 471 542 37,000  Level Minneapolis Center
Sat 07:46:15 PM 44.3181 -94.0681 102° East 475 547 37,000  Level Minneapolis Center
Sat 07:47:16 PM 44.2917 -93.8875 101° East 477 549 37,000  Level Minneapolis Center
Sat 07:48:17 PM 44.2658 -93.7075 101° East 477 549 37,000  Level Minneapolis Center
Sat 07:49:18 PM 44.2392 -93.5286 102° East 476 548 37,000  Level Minneapolis Center
Sat 07:50:20 PM 44.2125 -93.3500 102° East 475 547 37,000  Level Minneapolis Center
Sat 07:51:33 PM 44.1856 -93.1722 102° East 475 547 37,000  Level Minneapolis Center
Sat 07:52:34 PM 44.1472 -92.9236 102° East 474 545 37,000  Level Minneapolis Center
Sat 07:53:36 PM 44.1192 -92.7453 102° East 475 547 37,000  Level Minneapolis Center
Sat 07:54:37 PM 44.0903 -92.5678 103° East 475 547 37,000  Level Minneapolis Center
Sat 07:55:38 PM 44.0619 -92.3878 102° East 478 550 37,000  Level Minneapolis Center
Sat 07:56:39 PM 44.0342 -92.2081 102° East 478 550 37,000  Level Minneapolis Center
Sat 07:57:41 PM 44.0047 -92.0281 103° East 479 551 37,000  Level Minneapolis Center
Sat 07:58:42 PM 43.9756 -91.8494 103° East 478 550 37,000  Level Minneapolis Center
Sat 07:59:43 PM 43.9453 -91.6647 103° East 478 550 37,000  Level Minneapolis Center
Sat 08:00:44 PM 43.9161 -91.4856 103° East 479 551 37,000  Level Minneapolis Center
Sat 08:01:46 PM 43.8814 -91.3083 105° East 479 551 37,000  Level Minneapolis Center
Sat 08:02:47 PM 43.8372 -91.0989 106° East 476 548 37,000  Level Minneapolis Center
Sat 08:03:48 PM 43.8003 -90.9211 106° East 481 554 37,000  Level Minneapolis Center
Sat 08:05:01 PM 43.7633 -90.7439 106° East 482 555 37,000  Level Minneapolis Center
Sat 08:05:55 PM 43.7228 -90.5708 108° East 479 551 37,000  Level Chicago Center
Sat 08:06:56 PM 43.6806 -90.3958 108° East 481 554 37,000  Level Chicago Center
Sat 08:07:57 PM 43.6353 -90.2017 108° East 475 547 37,000  Level Chicago Center
Sat 08:08:59 PM 43.5928 -90.0286 109° East 476 548 37,000  Level Chicago Center
Sat 08:10:00 PM 43.5514 -89.8561 108° East 475 547 37,000  Level Chicago Center
Sat 08:11:02 PM 43.5081 -89.6842 109° East 474 545 37,000  Level Chicago Center
Sat 08:12:03 PM 43.4594 -89.4850 109° East 470 541 37,000  Level Chicago Center
Sat 08:13:04 PM 43.4172 -89.3139 109° East 472 543 37,000  Level Chicago Center
Sat 08:14:06 PM 43.3758 -89.1444 109° East 469 540 37,000  Level Chicago Center
Sat 08:15:07 PM 43.3336 -88.9778 109° East 465 535 37,000  Level Chicago Center
Sat 08:16:09 PM 43.2911 -88.8131 109° East 460 529 37,000  Level Chicago Center
Sat 08:17:10 PM 43.2478 -88.6492 110° East 463 533 37,000  Level Chicago Center
Sat 08:18:11 PM 43.1986 -88.4542 109° East 470 541 37,000  Level Chicago Center
Sat 08:19:13 PM 43.1567 -88.2883 109° East 467 537 37,000  Level Chicago Center
Sat 08:20:14 PM 43.1147 -88.1228 109° East 463 533 37,000  Level Chicago Center
Sat 08:21:16 PM 43.0714 -87.9567 110° East 465 535 37,000  Level Chicago Center
Sat 08:22:17 PM 43.0275 -87.7917 110° East 465 535 37,000  Level Chicago Center
Sat 08:23:18 PM 42.9833 -87.6261 110° East 463 533 37,000  Level Chicago Center
Sat 08:24:20 PM 42.9392 -87.4622 110° East 461 531 37,000  Level Chicago Center
Sat 08:25:21 PM 42.8961 -87.2972 110° East 459 528 37,000  Level Chicago Center
Sat 08:26:23 PM 42.8514 -87.1347 111° Southeast 459 528 37,000  Level Chicago Center
Sat 08:27:24 PM 42.7981 -86.9411 111° Southeast 459 528 37,000  Level Chicago Center
Sat 08:28:26 PM 42.7528 -86.7778 111° Southeast 463 533 37,000  Level Chicago Center
Sat 08:29:27 PM 42.7078 -86.6161 111° Southeast 460 529 37,000  Level Chicago Center
Sat 08:30:28 PM 42.6622 -86.4536 111° Southeast 462 532 37,000  Level Chicago Center
Sat 08:31:30 PM 42.6167 -86.2914 111° Southeast 465 535 37,000  Level Chicago Center
Sat 08:32:31 PM 42.5711 -86.1306 111° Southeast 463 533 37,000  Level Chicago Center
Sat 08:33:33 PM 42.5253 -85.9700 111° Southeast 462 532 37,000  Level Chicago Center
Sat 08:34:34 PM 42.4714 -85.7789 111° Southeast 458 527 37,000  Level Chicago Center
Sat 08:35:35 PM 42.4264 -85.6192 111° Southeast 457 526 37,000  Level Chicago Center
Sat 08:36:37 PM 42.3803 -85.4581 111° Southeast 461 531 37,000  Level Chicago Center
Sat 08:37:38 PM 42.3339 -85.2981 111° Southeast 461 531 37,000  Level Chicago Center
Sat 08:38:40 PM 42.2872 -85.1400 112° Southeast 457 526 37,000  Level Chicago Center
Sat 08:39:41 PM 42.2408 -84.9828 112° Southeast 455 524 37,000  Level Chicago Center
Sat 08:40:42 PM 42.1958 -84.8258 111° Southeast 450 518 37,000  Level Chicago Center
Sat 08:41:44 PM 42.1481 -84.6686 112° Southeast 453 521 37,000  Level Chicago Center
Sat 08:42:45 PM 42.0911 -84.4828 112° Southeast 451 519 37,000  Level Chicago Center
Sat 08:43:32 PM 42.0561 -84.3625 111° Southeast 453 521 37,000  Level Cleveland Center
Sat 08:44:33 PM 42.0108 -84.2214 113° Southeast 457 526 37,000  Level Cleveland Center
Sat 08:45:34 PM 41.9628 -84.0644 112° Southeast 457 526 37,000  Level Cleveland Center
Sat 08:46:35 PM 41.9042 -83.8783 113° Southeast 455 524 37,000  Level Cleveland Center
Sat 08:47:36 PM 41.8569 -83.7267 113° Southeast 446 513 37,000  Level Cleveland Center
Sat 08:48:38 PM 41.7994 -83.5833 118° Southeast 446 513 37,000  Level Cleveland Center
Sat 08:49:39 PM 41.7203 -83.4553 130° Southeast 449 517 37,000  Level Cleveland Center
Sat 08:50:40 PM 41.6403 -83.3281 130° Southeast 450 518 37,000  Level Cleveland Center
Sat 08:51:41 PM 41.5611 -83.2017 130° Southeast 447 514 37,000  Level Cleveland Center
Sat 08:52:42 PM 41.4783 -83.0731 131° Southeast 447 514 37,000  Level Cleveland Center
Sat 08:53:43 PM 41.3969 -82.9458 130° Southeast 448 516 37,000  Level Cleveland Center
Sat 08:54:44 PM 41.3156 -82.8186 130° Southeast 447 514 37,000  Level Cleveland Center
Sat 08:55:45 PM 41.2344 -82.6914 130° Southeast 450 518 37,000  Level Cleveland Center
Sat 08:56:46 PM 41.1397 -82.5461 131° Southeast 445 512 37,000  Level Cleveland Center
Sat 08:57:47 PM 41.0592 -82.4208 130° Southeast 445 512 37,000  Level Cleveland Center
Sat 08:58:48 PM 40.9778 -82.2975 131° Southeast 443 510 37,000  Level Cleveland Center
Sat 08:59:49 PM 40.8967 -82.1731 131° Southeast 444 511 37,000  Level Cleveland Center
Sat 09:00:50 PM 40.8150 -82.0483 131° Southeast 446 513 37,000  Level Cleveland Center
Sat 09:01:51 PM 40.7311 -81.9219 131° Southeast 453 521 37,000  Level Cleveland Center
Sat 09:02:52 PM 40.6483 -81.7972 131° Southeast 451 519 37,000  Level Cleveland Center
Sat 09:03:53 PM 40.5636 -81.6706 131° Southeast 457 526 37,000  Level Cleveland Center
Sat 09:04:54 PM 40.4789 -81.5431 131° Southeast 459 528 37,000 -49 Level Cleveland Center
Sat 09:05:55 PM 40.3953 -81.4175 131° Southeast 456 525 36,900 -443 Descending Cleveland Center
Sat 09:06:56 PM 40.3169 -81.2914 129° Southeast 453 521 36,100 -639 Descending Cleveland Center
Sat 09:07:57 PM 40.2489 -81.1561 123° Southeast 449 517 35,600 -541 Descending Cleveland Center
Sat 09:08:58 PM 40.1825 -81.0217 123° Southeast 443 510 35,000 -295 Descending Cleveland Center
Sat 09:09:59 PM 40.1142 -80.8883 124° Southeast 444 511 35,000  Level Cleveland Center
Sat 09:11:00 PM 40.0319 -80.7278 124° Southeast 448 516 35,000  Level Cleveland Center
Sat 09:12:01 PM 39.9628 -80.5939 124° Southeast 448 516 35,000  Level Cleveland Center
Sat 09:13:01 PM 39.8933 -80.4578 124° Southeast 453 521 35,000  Level Cleveland Center
Sat 09:14:02 PM 39.8242 -80.3233 124° Southeast 452 520 35,000  Level Cleveland Center
Sat 09:15:03 PM 39.7536 -80.1908 125° Southeast 451 519 35,000  Level Cleveland Center
Sat 09:16:04 PM 39.6833 -80.0558 124° Southeast 454 522 35,000 -49 Level Cleveland Center
Sat 09:17:05 PM 39.6131 -79.9239 125° Southeast 447 514 34,900 -1,101 Descending Cleveland Center
Sat 09:17:53 PM 39.5564 -79.8147 124° Southeast 456 525 33,000 -2,556 Descending Washington Center
Sat 09:18:53 PM 39.4839 -79.6761 124° Southeast 456 525 30,300 -1,934 Descending Washington Center
Sat 09:19:54 PM 39.4306 -79.5333 116° Southeast 449 517 29,100 -1,082 Descending Washington Center
Sat 09:20:55 PM 39.3978 -79.3811 106° East 434 499 28,100 -958 Descending Washington Center
Sat 09:21:53 PM 39.3608 -79.2289 107° East 440 506 27,200 -958 Descending Washington Center
Sat 09:22:54 PM 39.3297 -79.0825 105° East 435 501 26,200 -1,041 Descending Washington Center
Sat 09:23:54 PM 39.2964 -78.9386 107° East 424 488 25,100 -1,438 Descending Washington Center
Sat 09:24:55 PM 39.2625 -78.8003 108° East 419 482 23,300 -1,866 Descending Washington Center
Sat 09:25:53 PM 39.2325 -78.6678 106° East 404 465 21,400 -1,900 Descending Washington Center
Sat 09:26:55 PM 39.2025 -78.5353 106° East 387 445 19,500 -1,623 Descending Washington Center
Sat 09:27:55 PM 39.1722 -78.4108 107° East 375 432 18,100 -1,250 Descending Washington Center
Sat 09:28:55 PM 39.1439 -78.2839 106° East 368 423 17,000 -712 Descending Washington Center
Sat 09:29:53 PM 39.1111 -78.1622 109° East 368 423 16,700 -1,109 Descending Washington Center
Sat 09:30:54 PM 39.0803 -78.0383 108° East 368 423 14,800 -1,750 Descending Washington Center
Sat 09:31:53 PM 39.0494 -77.9197 108° East 368 423 13,200 -1,289 Descending Washington Center
Sat 09:32:55 PM 39.0222 -77.8119 108° East 333 383 12,200 -1,279 Descending Washington Center
Sat 09:33:55 PM 38.9950 -77.7017 108° East 311 358 10,600 -1,119 Descending Washington Center
Sat 09:34:53 PM 38.9672 -77.6153 112° Southeast 293 337 10,000 -807 Descending Washington Center
Sat 09:35:54 PM 38.9333 -77.5211 115° Southeast 279 321 9,000 -1,150 Descending Washington Center
Sat 09:36:53 PM 38.9000 -77.4333 116° Southeast 267 307 7,700 -1,248 Descending Potomac TRACON
Sat 09:37:59 PM 38.8667 -77.3333 113° Southeast 267 307 6,400 -1,190 Descending Potomac TRACON
Sat 09:38:59 PM 38.8167 -77.2667 134° Southeast 268 308 5,200 -955 Descending Potomac TRACON
Sat 09:40:11 PM 38.7667 -77.1833 128° Southeast 245 282 4,300 -850 Descending Potomac TRACON
Sat 09:40:59 PM 38.7333 -77.1333 131° Southeast 224 258 3,500 -895 Descending Potomac TRACON
Sat 09:42:05 PM 38.7333 -77.0667 90° East 177 204 2,600 -909 Descending Potomac TRACON
Sat 09:43:11 PM 38.7667 -77.0333 38° Northeast 161 185 1,500 -947 Descending Potomac TRACON
Sat 09:43:59 PM 38.8000 -77.0333 360° North 146 168 800 -875 Descending Potomac TRACON
Sat 09:45:00 PM 38.8500 -77.0333 North  Level FlightAware Approximate
Sat 09:52:00 PM 38.8519 -77.0377 North  Level Estimated
Sat 09:53:00 PM 38.8500 -77.0333 North  Level FlightAware Approximate
Sat 09:54:00 PM 38.8519 -77.0377 North  Level Estimated

Login

Don't have an account? Register now (free) for customized features, flight alerts, and more!